• Join FlightAware (Why Join?)
  • Login
  • US Flag 
05:46AM EDT


 

Airport Tracker/Info


-or-


 

Live Flight TrackerFlight Track Log ✈ FFT403 ✈ 02-May-2013 ✈ KDEN - KLAX

Flight Track Log - Related Links

Times and Time Zones

All times are in EDT time to prevent confusion due to time zone crossing. See the FFT403 flight status page for this flight to view local times or setup timezone preferences in your user account.

Time Position Orientation Groundspeed Altitude Reporting Facility
EDT Latitude Longitude Course Direction KTS MPH feet Rate Location/Type
11:12AM 39.8333 -104.7500 255° West 188 216 6,900  Level Denver TRACON
11:13AM 39.8167 -104.8333 255° West 247 284 7,900 1,920 Climbing Denver TRACON
11:14AM 39.7886 -104.9228 248° West 271 312 10,800 2,460 Climbing Denver Center
11:15AM 39.7547 -105.0267 247° West 310 357 12,900 2,220 Climbing Denver Center
11:16AM 39.7144 -105.1464 246° West 334 384 15,400 2,520 Climbing Denver Center
11:17AM 39.6747 -105.2619 246° West 350 403 18,200 1,980 Climbing Denver Center
11:18AM 39.6372 -105.3831 248° West 361 415 19,500 1,560 Climbing Denver Center
11:19AM 39.5972 -105.5194 249° West 376 433 21,500 1,740 Climbing Denver Center
11:20AM 39.5586 -105.6536 250° West 399 459 23,100 1,500 Climbing Denver Center
11:21AM 39.5133 -105.8036 249° West 421 484 24,600 1,500 Climbing Denver Center
11:22AM 39.4761 -105.9364 250° West 421 484 26,300 1,560 Climbing Denver Center
11:23AM 39.4333 -106.0806 249° West 428 493 27,900 1,500 Climbing Denver Center
11:24AM 39.3831 -106.2492 249° West 433 498 29,400 1,140 Climbing Denver Center
11:25AM 39.3417 -106.3911 249° West 439 505 30,300 1,440 Climbing Denver Center
11:26AM 39.2919 -106.5547 249° West 438 504 32,400 1,260 Climbing Denver Center
11:27AM 39.2475 -106.6922 247° West 434 499 33,000 240 Climbing Denver Center
11:28AM 39.1956 -106.7969 237° Southwest 433 498 33,000 480 Level Denver Center
11:29AM 39.0964 -106.9522 231° Southwest 437 503 34,000 480 Climbing Denver Center
11:30AM 39.0106 -107.0867 231° Southwest 435 501 34,000  Level Denver Center
11:31AM 38.9375 -107.2033 231° Southwest 437 503 34,000  Level Denver Center
11:32AM 38.8636 -107.3189 231° Southwest 438 504 34,000  Level Denver Center
11:33AM 38.7764 -107.4550 231° Southwest 440 506 34,000  Level Denver Center
11:34AM 38.7025 -107.5728 231° Southwest 442 509 34,000  Level Denver Center
11:35AM 38.6136 -107.7094 230° Southwest 445 512 34,100 600 Climbing Denver Center
11:36AM 38.5383 -107.8256 230° Southwest 443 510 35,300 900 Climbing Denver Center
11:37AM 38.4522 -107.9594 231° Southwest 437 503 36,000 300 Climbing Denver Center
11:38AM 38.3781 -108.0714 230° Southwest 432 497 36,000  Level Denver Center
11:40AM 38.2917 -108.2025 230° Southwest 432 497 36,000  Level Denver Center
11:41AM 38.2164 -108.3189 231° Southwest 440 506 36,000  Level Denver Center
11:42AM 38.1292 -108.4536 231° Southwest 439 505 36,000  Level Denver Center
11:43AM 38.0503 -108.5722 230° Southwest 436 502 36,000 -60 Level Denver Center
11:44AM 37.9775 -108.6803 230° Southwest 426 490 35,900  Descending Denver Center
11:45AM 37.8919 -108.8064 229° Southwest 424 488 36,000  Climbing Denver Center
11:46AM 37.8186 -108.9169 230° Southwest 426 490 35,900  Descending Denver Center
11:47AM 37.7514 -109.0603 239° Southwest 424 488 36,000  Climbing Denver Center
11:48AM 37.6961 -109.1839 241° Southwest 424 488 36,000  Level Denver Center
11:49AM 37.6328 -109.3269 241° Southwest 421 484 36,000  Level Denver Center
11:50AM 37.5781 -109.4486 240° Southwest 419 482 36,000  Level Denver Center
11:51AM 37.5144 -109.5911 241° Southwest 417 480 36,000  Level Denver Center
11:52AM 37.4694 -109.6911 240° Southwest 415 478 36,000  Level Denver Center
11:53AM 37.3886 -109.8692 240° Southwest 409 471 36,000  Level Denver Center
11:54AM 37.3344 -109.9878 240° Southwest 409 471 36,000  Level Denver Center
11:55AM 37.2714 -110.1281 241° Southwest 413 475 36,000  Level Denver Center
11:56AM 37.2122 -110.2553 240° Southwest 417 480 36,000  Level Denver Center
11:57AM 37.1542 -110.3800 240° Southwest 415 478 36,000  Level Denver Center
11:58AM 37.0969 -110.5033 240° Southwest 411 473 36,000  Level Denver Center
11:59AM 37.0406 -110.6278 240° Southwest 412 474 36,000  Level Denver Center
12:00PM 36.9842 -110.7481 240° Southwest 404 465 36,000  Level Denver Center
12:01PM 36.9156 -110.8950 240° Southwest 407 468 36,000  Level Denver Center
12:02PM 36.8586 -111.0175 240° Southwest 407 468 36,000  Level Denver Center
12:04PM 36.8031 -111.1375 240° Southwest 403 464 36,000  Level Denver Center
12:05PM 36.7450 -111.2603 239° Southwest 406 467 36,000  Level Denver Center
12:06PM 36.6858 -111.3842 239° Southwest 412 474 36,000  Level Denver Center
12:07PM 36.6264 -111.5094 239° Southwest 417 480 36,000  Level Denver Center
12:08PM 36.5542 -111.6575 239° Southwest 417 480 36,000  Level Denver Center
12:09PM 36.5069 -111.7556 239° Southwest 416 479 36,000  Level Denver Center
12:10PM 36.4375 -111.9017 239° Southwest 410 472 36,000  Level Denver Center
12:10PM 36.4258 -111.9239 237° Southwest 409 471 36,000  Level Los Angeles Center
12:11PM 36.3556 -112.0689 239° Southwest 408 470 36,000 -60 Level Los Angeles Center
12:12PM 36.2972 -112.1892 239° Southwest 407 468 35,900  Descending Los Angeles Center
12:13PM 36.2386 -112.3100 239° Southwest 408 470 36,000  Climbing Los Angeles Center
12:14PM 36.1789 -112.4319 239° Southwest 411 473 36,000  Level Los Angeles Center
12:15PM 36.1058 -112.5792 238° Southwest 417 480 36,000  Level Los Angeles Center
12:16PM 36.0461 -112.7008 239° Southwest 417 480 36,000  Level Los Angeles Center
12:17PM 35.9861 -112.8211 238° Southwest 413 475 36,000  Level Los Angeles Center
12:18PM 35.9303 -112.9350 239° Southwest 411 473 36,000  Level Los Angeles Center
12:19PM 35.8714 -113.0533 238° Southwest 409 471 36,000  Level Los Angeles Center
12:20PM 35.8119 -113.1711 238° Southwest 409 471 36,000  Level Los Angeles Center
12:21PM 35.7411 -113.3131 238° Southwest 410 472 36,000  Level Los Angeles Center
12:22PM 35.6814 -113.4325 238° Southwest 414 476 36,000  Level Los Angeles Center
12:24PM 35.6217 -113.5514 238° Southwest 412 474 36,000  Level Los Angeles Center
12:25PM 35.5714 -113.6769 244° Southwest 412 474 36,000  Level Los Angeles Center
12:26PM 35.5097 -113.8272 243° Southwest 414 476 36,000  Level Los Angeles Center
12:27PM 35.4594 -113.9517 244° Southwest 410 472 36,000  Level Los Angeles Center
12:28PM 35.4000 -114.0953 243° Southwest 408 470 36,000  Level Los Angeles Center
12:29PM 35.3489 -114.2200 243° Southwest 408 470 36,000  Level Los Angeles Center
12:30PM 35.2889 -114.3689 244° Southwest 405 466 36,000  Level Los Angeles Center
12:31PM 35.2364 -114.4936 243° Southwest 409 471 36,000  Level Los Angeles Center
12:32PM 35.1844 -114.6172 243° Southwest 408 470 36,000  Level Los Angeles Center
12:33PM 35.1339 -114.7397 243° Southwest 406 467 36,000  Level Los Angeles Center
12:34PM 35.0817 -114.8633 243° Southwest 406 467 36,000  Level Los Angeles Center
12:35PM 35.0189 -115.0128 243° Southwest 408 470 36,000  Level Los Angeles Center
12:36PM 34.9661 -115.1378 243° Southwest 410 472 36,000  Level Los Angeles Center
12:37PM 34.9136 -115.2625 243° Southwest 411 473 36,000  Level Los Angeles Center
12:38PM 34.8614 -115.3856 243° Southwest 410 472 36,000  Level Los Angeles Center
12:39PM 34.8086 -115.5075 242° Southwest 408 470 36,000  Level Los Angeles Center
12:40PM 34.7586 -115.6292 243° Southwest 408 470 36,000  Level Los Angeles Center
12:41PM 34.7042 -115.7519 242° Southwest 412 474 36,000  Level Los Angeles Center
12:42PM 34.6425 -115.8972 243° Southwest 407 468 36,000  Level Los Angeles Center
12:43PM 34.5886 -116.0189 242° Southwest 406 467 36,000  Level Los Angeles Center
12:44PM 34.5364 -116.1397 242° Southwest 405 466 36,000 -780 Level Los Angeles Center
12:45PM 34.4842 -116.2606 242° Southwest 405 466 34,500 -2,280 Descending Los Angeles Center
12:47PM 34.4281 -116.3867 242° Southwest 422 486 31,300 -2,820 Descending Los Angeles Center
12:48PM 34.3714 -116.5150 242° Southwest 430 495 28,700 -2,760 Descending Los Angeles Center
12:49PM 34.3056 -116.6631 242° Southwest 419 482 25,700 -2,580 Descending Los Angeles Center
12:50PM 34.2519 -116.7842 242° Southwest 409 471 23,400 -2,040 Descending Los Angeles Center
12:52PM 34.1500 -117.0167 242° Southwest 364 419 19,700 -1,920 Descending Southern California TRACON
12:53PM 34.1000 -117.1167 239° Southwest 358 412 17,800 -1,380 Descending Southern California TRACON
12:53PM 34.0667 -117.2000 244° Southwest 335 386 17,100 -1,200 Descending Southern California TRACON
12:54PM 34.0500 -117.3000 259° West 319 367 15,600 -1,380 Descending Southern California TRACON
12:57PM 34.0333 -117.5167 265° West 295 339 13,100 -1,320 Descending Southern California TRACON
12:57PM 34.0333 -117.6167 270° West 303 349 11,800 -1,560 Descending Southern California TRACON
12:59PM 34.0167 -117.7167 259° West 281 323 10,000 -1,560 Descending Southern California TRACON
01:00PM 34.0167 -117.8167 270° West 284 327 8,600 -1,260 Descending Southern California TRACON
01:01PM 34.0000 -117.9000 256° West 271 312 7,500 -1,020 Descending Southern California TRACON
01:02PM 33.9833 -118.0000 259° West 245 282 6,600 -900 Descending Southern California TRACON
01:03PM 33.9833 -118.0667 270° West 224 258 5,700 -900 Descending Southern California TRACON
01:04PM 33.9833 -118.1333 270° West 202 232 4,800 -900 Descending Southern California TRACON
01:04PM 33.9733 -118.1811 256° West 198 228 4,100 -1,080 Descending Los Angeles Center
01:05PM 33.9675 -118.2339 262° West 173 199 2,900 -1,020 Descending Los Angeles Center
01:06PM 33.9631 -118.2786 263° West 153 176 2,100 -840 Descending Los Angeles Center
01:07PM 33.9572 -118.3356 263° West 146 168 1,200 -720 Descending Los Angeles Center
01:08PM 33.9533 -118.3814 264° West 142 163 700 -540 Descending Los Angeles Center
01:09PM 33.9486 -118.4203 262° West 140 161 100 -600 Descending Los Angeles Center
01:11PM 33.9425 -118.4081 259° West  Level Estimated
01:18PM 33.9425 -118.4081 259° West  Level Estimated